Time;durP1;ratioP1;P1;durP2;ratioP2;P2;SDS_P1;SDS_P2;PMS_P1;PMS_P2;Temp;Humidity;BMP_temperature;BMP_pressure;BME280_temperature;BME280_humidity;BME280_pressure;Samples;Min_cycle;Max_cycle;Signal;HPM_P1;HPM_P2
2023/12/30 00:00:16;;;;;;;10.10;3.47;;;;;;;3.08;100.00;99512.09;4993758;28;20068;-96
2023/12/30 00:02:42;;;;;;;17.92;4.72;;;;;;;2.96;100.00;99494.78;5001713;28;20506;-91
2023/12/30 00:05:08;;;;;;;11.32;4.13;;;;;;;2.97;100.00;99502.50;4973309;28;20050;-91
2023/12/30 00:07:34;;;;;;;7.63;3.72;;;;;;;2.90;100.00;99496.06;5009846;28;20033;-92
2023/12/30 00:10:00;;;;;;;10.88;4.03;;;;;;;2.92;100.00;99506.38;4977800;28;20104;-92
2023/12/30 00:12:25;;;;;;;10.93;4.43;;;;;;;3.00;100.00;99501.41;5006925;28;20030;-92
2023/12/30 00:14:51;;;;;;;12.68;3.95;;;;;;;3.03;100.00;99490.72;4977125;28;20579;-92
2023/12/30 00:17:17;;;;;;;15.25;5.85;;;;;;;3.10;100.00;99496.31;4995549;28;20060;-92
2023/12/30 00:19:45;;;;;;;13.50;5.22;;;;;;;3.08;100.00;99480.78;5013008;28;20443;-92
2023/12/30 00:22:11;;;;;;;16.17;6.10;;;;;;;3.08;100.00;99478.16;5017897;28;20053;-92
2023/12/30 00:24:37;;;;;;;20.95;9.23;;;;;;;2.98;100.00;99475.44;4975938;28;20041;-92
2023/12/30 00:27:03;;;;;;;14.63;5.40;;;;;;;3.00;100.00;99483.13;5003741;28;20030;-92
2023/12/30 00:29:29;;;;;;;12.30;5.72;;;;;;;2.97;100.00;99473.78;4975054;28;20545;-93
2023/12/30 00:31:55;;;;;;;7.97;3.50;;;;;;;3.00;100.00;99462.25;5000832;28;20045;-92
2023/12/30 00:34:21;;;;;;;11.45;3.45;;;;;;;3.03;100.00;99458.56;4993991;28;20041;-92
2023/12/30 00:36:47;;;;;;;8.30;2.90;;;;;;;3.02;100.00;99452.53;5002717;28;20034;-92
2023/12/30 00:39:13;;;;;;;8.52;3.35;;;;;;;2.98;100.00;99427.59;4993690;28;20069;-92
2023/12/30 00:45:31;;;;;;;7.75;3.05;;;;;;;3.01;100.00;99434.38;4964177;28;20057;-91
2023/12/30 00:47:57;;;;;;;10.40;4.03;;;;;;;3.05;100.00;99443.63;4981532;28;20061;-91
2023/12/30 00:50:24;;;;;;;13.35;3.70;;;;;;;2.99;100.00;99424.06;4993078;28;20026;-92
2023/12/30 00:52:49;;;;;;;12.18;3.28;;;;;;;3.05;100.00;99427.94;4986763;28;20022;-92
2023/12/30 00:55:16;;;;;;;11.02;3.17;;;;;;;3.00;100.00;99424.88;4997114;28;20108;-92
2023/12/30 00:57:41;;;;;;;12.18;3.92;;;;;;;3.03;100.00;99409.81;4976498;28;20716;-93
2023/12/30 01:00:08;;;;;;;6.80;3.05;;;;;;;3.00;100.00;99407.44;5025319;28;20034;-92
2023/12/30 01:02:33;;;;;;;5.72;2.47;;;;;;;3.03;100.00;99395.91;5010785;28;20033;-92
2023/12/30 01:04:59;;;;;;;8.88;2.85;;;;;;;3.03;100.00;99396.75;4995115;28;20033;-92
2023/12/30 01:07:25;;;;;;;5.38;2.20;;;;;;;3.04;100.00;99382.72;4993984;28;20065;-92
2023/12/30 01:09:51;;;;;;;5.22;2.40;;;;;;;3.06;100.00;99386.06;5008876;28;20433;-92
2023/12/30 01:12:16;;;;;;;8.85;3.35;;;;;;;3.12;100.00;99381.31;5010359;28;20068;-93
2023/12/30 01:14:52;;;;;;;15.23;4.47;;;;;;;3.17;100.00;99387.00;4998850;28;20039;-92
2023/12/30 01:18:25;;;;;;;11.02;3.00;;;;;;;3.23;100.00;99369.03;5004368;28;20039;-93
2023/12/30 01:22:05;;;;;;;7.70;2.03;;;;;;;3.32;100.00;99361.41;4951132;28;20114;-93
2023/12/30 01:25:21;;;;;;;8.82;1.50;;;;;;;3.36;100.00;99357.59;4933109;28;20048;-92
2023/12/30 01:27:47;;;;;;;7.88;1.65;;;;;;;3.43;100.00;99347.47;4996011;28;20030;-92
2023/12/30 01:30:13;;;;;;;6.40;1.58;;;;;;;3.53;100.00;99340.56;4977988;28;20033;-92
2023/12/30 01:32:39;;;;;;;7.43;1.85;;;;;;;3.53;100.00;99330.09;4997445;28;20029;-92
2023/12/30 01:35:07;;;;;;;9.02;2.05;;;;;;;3.63;100.00;99327.53;4983081;28;20018;-92
2023/12/30 01:37:34;;;;;;;5.15;2.17;;;;;;;3.72;100.00;99320.75;5019574;28;20037;-92
2023/12/30 01:40:00;;;;;;;6.93;1.80;;;;;;;3.74;100.00;99318.00;5010060;28;20110;-93
2023/12/30 01:42:26;;;;;;;8.35;1.75;;;;;;;3.68;100.00;99293.22;4979409;28;20112;-93
2023/12/30 01:44:52;;;;;;;5.10;1.40;;;;;;;3.76;100.00;99313.47;4978270;28;20045;-93
2023/12/30 01:47:18;;;;;;;6.57;1.40;;;;;;;3.78;100.00;99301.94;5008335;28;20061;-93
2023/12/30 01:49:44;;;;;;;7.45;1.42;;;;;;;3.83;100.00;99293.69;5008146;28;20079;-93
2023/12/30 01:52:11;;;;;;;9.63;1.40;;;;;;;3.80;100.00;99283.50;4989645;28;20488;-93
2023/12/30 01:54:39;;;;;;;6.57;2.55;;;;;;;3.84;100.00;99288.34;5005769;28;20022;-93
2023/12/30 01:57:06;;;;;;;11.25;1.92;;;;;;;3.87;100.00;99275.97;4979538;28;20033;-93
2023/12/30 01:59:32;;;;;;;13.77;1.60;;;;;;;3.88;100.00;99259.31;5016868;28;20055;-92
2023/12/30 02:01:59;;;;;;;7.05;1.52;;;;;;;3.97;100.00;99258.53;5004506;28;20364;-93
2023/12/30 02:04:28;;;;;;;9.50;1.98;;;;;;;3.95;100.00;99247.41;5000048;28;20050;-93
2023/12/30 02:06:54;;;;;;;9.48;1.90;;;;;;;3.97;100.00;99241.06;4978386;28;20053;-93
2023/12/30 02:09:26;;;;;;;7.43;1.15;;;;;;;3.95;100.00;99229.09;4969918;28;20536;-93
2023/12/30 02:11:53;;;;;;;9.90;1.88;;;;;;;4.00;100.00;99239.16;4984069;28;20041;-94
2023/12/30 02:14:29;;;;;;;9.23;2.63;;;;;;;4.04;100.00;99217.84;4980228;28;20057;-94
2023/12/30 02:17:14;;;;;;;7.22;1.30;;;;;;;4.04;100.00;99217.84;5004882;28;20068;-93
2023/12/30 02:19:40;;;;;;;8.98;1.50;;;;;;;4.07;100.00;99214.13;4993072;28;20030;-94
2023/12/30 02:22:11;;;;;;;6.57;1.70;;;;;;;4.08;100.00;99205.31;5011524;28;20370;-93
2023/12/30 02:24:40;;;;;;;7.20;1.17;;;;;;;4.12;100.00;99200.66;4993221;28;20038;-93
2023/12/30 02:27:09;;;;;;;7.63;0.68;;;;;;;4.13;100.00;99190.06;4991482;28;20041;-94
2023/12/30 02:29:37;;;;;;;9.77;1.25;;;;;;;4.13;100.00;99174.38;4973594;28;20128;-94
2023/12/30 02:32:06;;;;;;;6.32;1.20;;;;;;;4.14;100.00;99168.16;4993821;28;20042;-94
2023/12/30 02:34:40;;;;;;;4.00;0.80;;;;;;;4.11;100.00;99155.38;4980047;28;20033;-93
2023/12/30 02:37:09;;;;;;;8.27;1.70;;;;;;;4.21;100.00;99145.75;4989460;28;20065;-94
2023/12/30 02:39:46;;;;;;;4.65;0.82;;;;;;;4.26;100.00;99145.34;4994691;28;20029;-94
2023/12/30 02:42:29;;;;;;;6.43;0.90;;;;;;;4.22;100.00;99130.91;4996715;28;20022;-95
2023/12/30 02:45:03;;;;;;;7.25;0.88;;;;;;;4.26;100.00;99110.50;4994960;28;20029;-93
2023/12/30 02:47:40;;;;;;;6.32;0.47;;;;;;;4.24;100.00;99105.41;5003186;28;20026;-94
2023/12/30 02:50:16;;;;;;;2.72;0.70;;;;;;;4.31;100.00;99096.09;5006930;28;20033;-95
2023/12/30 02:52:49;;;;;;;7.00;0.88;;;;;;;4.25;100.00;99082.72;5025742;28;20048;-94
2023/12/30 02:55:18;;;;;;;6.25;0.80;;;;;;;4.37;100.00;99072.94;4992841;28;20023;-93
2023/12/30 02:57:49;;;;;;;8.07;1.30;;;;;;;4.45;100.00;99062.59;5012030;28;20117;-94
2023/12/30 03:00:23;;;;;;;4.43;1.67;;;;;;;4.42;100.00;99063.72;5012541;28;20038;-95
2023/12/30 03:02:55;;;;;;;4.35;0.60;;;;;;;4.55;100.00;99049.53;4979263;28;20076;-96
2023/12/30 03:06:07;;;;;;;5.78;0.47;;;;;;;4.56;100.00;99030.22;5021549;28;20054;-95
2023/12/30 03:08:43;;;;;;;3.63;0.57;;;;;;;4.65;100.00;99024.13;5011897;28;20482;-95
2023/12/30 03:11:12;;;;;;;5.18;0.77;;;;;;;4.64;100.00;99012.03;5011035;28;20045;-94
2023/12/30 03:13:52;;;;;;;6.47;0.60;;;;;;;4.78;100.00;99016.00;5001936;28;20119;-94
2023/12/30 03:16:23;;;;;;;4.68;0.40;;;;;;;4.69;100.00;98995.91;4994312;28;20041;-96
2023/12/30 03:18:49;;;;;;;9.50;0.57;;;;;;;4.74;100.00;98998.94;4989186;28;20030;-95
2023/12/30 03:21:18;;;;;;;10.25;0.73;;;;;;;4.80;100.00;98987.06;4995722;28;20132;-94
2023/12/30 03:23:44;;;;;;;6.10;0.50;;;;;;;4.78;100.00;98981.16;5009306;28;20149;-96
2023/12/30 03:26:10;;;;;;;9.05;0.80;;;;;;;4.82;100.00;98975.47;4988138;28;20037;-95
2023/12/30 03:28:36;;;;;;;6.07;0.90;;;;;;;4.79;100.00;98956.63;4994796;28;20165;-93
2023/12/30 03:31:03;;;;;;;11.82;1.75;;;;;;;4.89;100.00;98961.81;4992443;28;20037;-95
2023/12/30 03:33:29;;;;;;;7.55;1.02;;;;;;;4.81;100.00;98952.06;5005772;28;20034;-94
2023/12/30 03:35:55;;;;;;;11.38;0.90;;;;;;;4.86;100.00;98943.78;4996653;28;20032;-93
2023/12/30 03:38:21;;;;;;;9.63;1.00;;;;;;;4.93;100.00;98944.84;5011125;28;20038;-92
2023/12/30 03:40:47;;;;;;;8.80;0.85;;;;;;;4.89;100.00;98928.59;5007914;28;20030;-92
2023/12/30 03:43:14;;;;;;;5.80;0.50;;;;;;;4.96;100.00;98936.69;4991822;28;20466;-92
2023/12/30 03:45:40;;;;;;;7.72;0.90;;;;;;;5.02;100.00;98933.50;4999803;28;20471;-92
2023/12/30 03:48:06;;;;;;;6.55;0.75;;;;;;;5.00;100.00;98914.47;4988995;28;20076;-92
2023/12/30 03:50:32;;;;;;;7.47;1.00;;;;;;;4.99;100.00;98902.34;4981332;28;20041;-92
2023/12/30 03:52:58;;;;;;;4.00;0.73;;;;;;;5.09;100.00;98899.69;4996948;28;21379;-92
2023/12/30 03:55:24;;;;;;;4.38;0.70;;;;;;;5.04;100.00;98879.19;5023873;28;20026;-94
2023/12/30 03:57:50;;;;;;;5.80;0.70;;;;;;;5.08;100.00;98870.03;4994235;28;20019;-95
2023/12/30 04:00:16;;;;;;;3.05;0.45;;;;;;;5.19;100.00;98874.25;4982492;28;20041;-92
2023/12/30 04:02:43;;;;;;;3.90;0.47;;;;;;;5.20;100.00;98860.19;4997926;28;20371;-91
2023/12/30 04:05:09;;;;;;;5.60;0.63;;;;;;;5.27;100.00;98851.75;4996519;28;20092;-93
2023/12/30 04:07:36;;;;;;;3.25;0.52;;;;;;;5.27;100.00;98830.78;5012286;28;20033;-93
2023/12/30 04:10:02;;;;;;;3.55;0.50;;;;;;;5.32;100.00;98815.41;4997598;28;20113;-93
2023/12/30 04:12:29;;;;;;;5.97;1.13;;;;;;;5.31;100.00;98792.81;4989198;28;20045;-93
2023/12/30 04:14:58;;;;;;;1.77;0.50;;;;;;;5.33;100.00;98789.09;4986051;28;20049;-96
2023/12/30 04:17:43;;;;;;;1.15;0.30;;;;;;;5.30;100.00;98791.97;5011790;28;20040;-96
2023/12/30 04:20:09;;;;;;;3.95;0.50;;;;;;;5.35;100.00;98773.22;4991818;28;20238;-93
2023/12/30 04:22:36;;;;;;;3.47;0.50;;;;;;;5.46;100.00;98774.78;5009536;28;20484;-96
2023/12/30 04:25:02;;;;;;;2.00;0.32;;;;;;;5.40;100.00;98755.22;4993977;28;20033;-96
2023/12/30 04:27:29;;;;;;;1.40;0.35;;;;;;;5.45;100.00;98746.91;4999127;28;20028;-95
2023/12/30 04:30:03;;;;;;;2.55;0.45;;;;;;;5.45;100.00;98731.19;5008576;28;20042;-96
2023/12/30 04:32:29;;;;;;;2.38;0.75;;;;;;;5.51;100.00;98727.94;5013129;28;20526;-94
2023/12/30 04:34:55;;;;;;;2.15;0.57;;;;;;;5.49;100.00;98706.31;5013972;28;20100;-94
2023/12/30 04:37:26;;;;;;;4.45;0.40;;;;;;;5.50;100.00;98694.84;4997176;28;20053;-96
2023/12/30 04:39:55;;;;;;;0.73;0.30;;;;;;;5.58;100.00;98684.44;5013296;28;20501;-95
2023/12/30 04:42:25;;;;;;;2.42;0.20;;;;;;;5.61;100.00;98682.44;5001001;28;20026;-95
2023/12/30 04:45:12;;;;;;;3.08;0.38;;;;;;;5.59;100.00;98652.00;5002519;28;20824;-96
2023/12/30 04:47:40;;;;;;;1.45;0.25;;;;;;;5.66;100.00;98635.63;4981671;28;20061;-95
2023/12/30 04:50:06;;;;;;;2.45;0.47;;;;;;;5.74;100.00;98633.06;4977762;28;20723;-94
2023/12/30 04:52:32;;;;;;;2.65;0.40;;;;;;;5.76;100.00;98617.16;4996893;28;20087;-93
2023/12/30 04:54:58;;;;;;;1.23;0.30;;;;;;;5.87;100.00;98595.91;5011150;28;20022;-96
2023/12/30 04:57:24;;;;;;;1.50;0.30;;;;;;;5.93;100.00;98581.31;5029143;28;20030;-93
2023/12/30 04:59:51;;;;;;;1.40;0.32;;;;;;;5.97;100.00;98569.53;5002295;28;20030;-93
2023/12/30 05:02:17;;;;;;;5.78;0.52;;;;;;;6.03;100.00;98561.03;4980649;28;20060;-95
2023/12/30 05:04:43;;;;;;;0.57;0.20;;;;;;;6.04;100.00;98549.56;4973991;28;20038;-93
2023/12/30 05:07:09;;;;;;;1.42;0.30;;;;;;;6.08;100.00;98535.16;5016378;28;20049;-94
2023/12/30 05:09:37;;;;;;;2.08;0.20;;;;;;;6.13;100.00;98520.75;5032569;28;21286;-96
2023/12/30 05:12:06;;;;;;;3.78;0.30;;;;;;;6.14;100.00;98515.34;5014330;28;20374;-94
2023/12/30 05:14:32;;;;;;;2.78;0.20;;;;;;;6.17;100.00;98507.13;5014820;28;20099;-93
2023/12/30 05:17:00;;;;;;;0.30;0.20;;;;;;;6.19;100.00;98504.34;5011374;28;20406;-95
2023/12/30 05:19:26;;;;;;;1.10;0.22;;;;;;;6.25;100.00;98468.75;5030251;28;20037;-93
2023/12/30 05:21:53;;;;;;;2.13;0.20;;;;;;;6.33;100.00;98463.50;5007165;28;20486;-93
2023/12/30 05:24:19;;;;;;;1.55;0.20;;;;;;;6.36;100.00;98447.44;5006695;28;20169;-93
2023/12/30 05:26:44;;;;;;;1.95;0.35;;;;;;;6.49;100.00;98448.72;5027920;28;20050;-93
2023/12/30 05:29:10;;;;;;;2.25;0.15;;;;;;;6.57;100.00;98427.69;4997258;28;20029;-92
2023/12/30 05:31:36;;;;;;;3.22;0.32;;;;;;;6.63;100.00;98411.28;5014755;28;20025;-95
2023/12/30 05:34:02;;;;;;;5.28;0.50;;;;;;;6.75;100.00;98397.78;5009035;28;20038;-93
2023/12/30 05:36:28;;;;;;;3.40;0.32;;;;;;;6.90;100.00;98382.09;4989660;28;20470;-96
2023/12/30 05:38:54;;;;;;;3.92;0.32;;;;;;;6.93;100.00;98361.59;4988440;28;20033;-93
2023/12/30 05:41:20;;;;;;;3.58;0.60;;;;;;;7.13;100.00;98373.47;4997142;28;20042;-94
2023/12/30 05:43:47;;;;;;;4.63;0.50;;;;;;;7.22;100.00;98354.03;5009700;28;20041;-93
2023/12/30 05:46:19;;;;;;;7.18;0.85;;;;;;;7.38;100.00;98331.25;5008398;28;20030;-94
2023/12/30 05:48:47;;;;;;;8.07;1.10;;;;;;;7.48;100.00;98328.38;5009391;28;20116;-96
2023/12/30 05:51:13;;;;;;;8.38;1.08;;;;;;;7.53;100.00;98316.34;4972862;28;20029;-95
2023/12/30 05:53:43;;;;;;;8.65;0.95;;;;;;;7.66;100.00;98301.78;5010853;28;20038;-93
2023/12/30 05:56:09;;;;;;;11.00;1.00;;;;;;;7.65;100.00;98289.63;4981078;28;20026;-92
2023/12/30 05:58:34;;;;;;;15.88;1.40;;;;;;;7.71;100.00;98274.97;4994766;28;20029;-92
2023/12/30 06:01:01;;;;;;;10.77;1.30;;;;;;;7.79;100.00;98266.97;4978460;28;20026;-93
2023/12/30 06:03:30;;;;;;;12.38;1.17;;;;;;;7.90;100.00;98255.19;4979308;28;20052;-93
2023/12/30 06:05:56;;;;;;;10.85;2.50;;;;;;;7.98;100.00;98260.34;4991515;28;20541;-92
2023/12/30 06:08:22;;;;;;;13.40;1.52;;;;;;;7.99;100.00;98248.84;4998858;28;20053;-92
2023/12/30 06:10:51;;;;;;;14.23;1.90;;;;;;;8.05;100.00;98229.69;4995728;28;20037;-93
2023/12/30 06:13:17;;;;;;;19.10;1.70;;;;;;;8.06;100.00;98231.31;4994623;28;20067;-92
2023/12/30 06:15:48;;;;;;;16.02;1.50;;;;;;;8.17;100.00;98205.56;5027854;28;20478;-91
2023/12/30 06:18:14;;;;;;;14.40;1.75;;;;;;;8.16;100.00;98206.53;4993866;28;20045;-93
2023/12/30 06:20:42;;;;;;;12.20;1.30;;;;;;;8.18;100.00;98194.03;4995242;28;20409;-91
2023/12/30 06:23:08;;;;;;;13.50;2.47;;;;;;;8.18;100.00;98192.22;4994717;28;20034;-90
2023/12/30 06:25:34;;;;;;;12.48;1.50;;;;;;;8.23;100.00;98181.13;4993680;28;20026;-91
2023/12/30 06:27:59;;;;;;;14.30;1.58;;;;;;;8.25;100.00;98183.56;4993971;28;20046;-96
2023/12/30 06:30:25;;;;;;;14.02;1.85;;;;;;;8.24;100.00;98172.22;4995286;28;20029;-96
2023/12/30 06:32:51;;;;;;;16.48;1.38;;;;;;;8.35;100.00;98167.47;5011021;28;20030;-94
2023/12/30 06:35:17;;;;;;;13.55;1.20;;;;;;;8.34;100.00;98144.78;5009707;28;20430;-96
2023/12/30 06:37:43;;;;;;;9.88;0.90;;;;;;;8.41;100.00;98146.47;4993529;28;20437;-93
2023/12/30 06:40:09;;;;;;;7.72;1.20;;;;;;;8.46;100.00;98134.59;4992456;28;20034;-92
2023/12/30 06:42:35;;;;;;;16.63;1.50;;;;;;;8.49;100.00;98140.28;5008004;28;20075;-91
2023/12/30 06:45:01;;;;;;;15.75;2.17;;;;;;;8.49;100.00;98113.94;4984402;28;20486;-91
2023/12/30 06:47:26;;;;;;;13.20;1.45;;;;;;;8.57;100.00;98118.28;4986634;28;20030;-90
2023/12/30 06:49:52;;;;;;;11.95;1.13;;;;;;;8.60;100.00;98104.75;4993888;28;20034;-92
2023/12/30 06:52:18;;;;;;;13.27;1.58;;;;;;;8.67;100.00;98094.28;5008331;28;20041;-91
2023/12/30 06:54:44;;;;;;;8.40;0.80;;;;;;;8.65;100.00;98081.31;4983007;28;20030;-91
2023/12/30 06:57:10;;;;;;;11.60;1.60;;;;;;;8.69;100.00;98081.75;4980378;28;21891;-91
2023/12/30 06:59:36;;;;;;;16.80;1.40;;;;;;;8.67;100.00;98079.31;5027970;28;20030;-94
2023/12/30 07:02:02;;;;;;;11.23;1.35;;;;;;;8.76;100.00;98081.81;4994556;28;20033;-95
2023/12/30 07:04:28;;;;;;;8.57;1.40;;;;;;;8.69;100.00;98058.03;5011185;28;20061;-90
2023/12/30 07:06:53;;;;;;;7.85;1.20;;;;;;;8.77;100.00;98055.28;5025073;28;20038;-92
2023/12/30 07:09:20;;;;;;;11.18;1.10;;;;;;;8.79;100.00;98041.91;4991966;28;20034;-94
2023/12/30 07:11:46;;;;;;;14.02;2.05;;;;;;;8.80;100.00;98033.00;5030126;28;20025;-95
2023/12/30 07:14:11;;;;;;;14.00;1.27;;;;;;;8.85;100.00;98037.69;4980223;28;20033;-94
2023/12/30 07:16:37;;;;;;;12.63;1.42;;;;;;;8.85;100.00;98040.31;4994088;28;20378;-92
2023/12/30 07:19:03;;;;;;;9.63;1.15;;;;;;;8.86;100.00;98026.94;5006599;28;20030;-91
2023/12/30 07:21:29;;;;;;;9.52;1.25;;;;;;;8.93;100.00;98008.56;4986640;28;20041;-91
2023/12/30 07:23:55;;;;;;;8.48;1.13;;;;;;;8.96;100.00;98017.88;5011030;28;20026;-92
2023/12/30 07:26:21;;;;;;;9.63;1.10;;;;;;;8.96;100.00;97976.56;5010962;28;20478;-93
2023/12/30 07:28:46;;;;;;;10.15;1.27;;;;;;;9.00;100.00;98006.75;4995854;28;20018;-91
2023/12/30 07:31:15;;;;;;;6.63;0.90;;;;;;;9.02;100.00;97996.03;4994710;28;20056;-89
2023/12/30 07:33:41;;;;;;;7.65;1.02;;;;;;;9.04;100.00;97980.84;4979937;28;20030;-94
2023/12/30 07:36:07;;;;;;;8.25;1.27;;;;;;;9.11;100.00;97967.72;5004824;28;20113;-91
2023/12/30 07:38:33;;;;;;;8.10;0.90;;;;;;;9.06;100.00;97961.19;4996346;28;20022;-94
2023/12/30 07:40:59;;;;;;;11.43;0.95;;;;;;;9.13;100.00;97944.59;5029342;28;20028;-93
2023/12/30 07:43:25;;;;;;;6.20;0.82;;;;;;;9.11;100.00;97952.69;4987813;28;20033;-93
2023/12/30 07:45:50;;;;;;;9.02;0.88;;;;;;;9.16;100.00;97944.19;5014785;28;20355;-93
2023/12/30 07:48:16;;;;;;;2.85;0.50;;;;;;;9.23;100.00;97942.41;5012718;28;20060;-92
2023/12/30 07:50:42;;;;;;;6.00;0.82;;;;;;;9.23;100.00;97921.31;5010238;28;20425;-92
2023/12/30 07:53:08;;;;;;;1.88;0.63;;;;;;;9.32;100.00;97918.50;5011223;28;20050;-92
2023/12/30 07:55:34;;;;;;;7.00;0.60;;;;;;;9.32;100.00;97921.16;5006945;28;20037;-93
2023/12/30 07:58:00;;;;;;;6.20;0.88;;;;;;;9.36;100.00;97893.38;4997467;28;20026;-92
2023/12/30 08:00:26;;;;;;;4.93;0.63;;;;;;;9.41;100.00;97909.41;4996877;28;20040;-92
2023/12/30 08:02:52;;;;;;;4.07;0.60;;;;;;;9.44;100.00;97898.47;4995467;28;20030;-92
2023/12/30 08:05:18;;;;;;;5.80;1.25;;;;;;;9.46;100.00;97906.97;4993918;28;20057;-93
2023/12/30 08:07:44;;;;;;;5.47;0.77;;;;;;;9.50;100.00;97871.28;4992527;28;20362;-93
2023/12/30 08:10:11;;;;;;;3.78;0.52;;;;;;;9.46;100.00;97864.00;4996386;28;20033;-93
2023/12/30 08:12:37;;;;;;;3.25;0.47;;;;;;;9.49;100.00;97858.31;4983422;28;20026;-92
2023/12/30 08:15:04;;;;;;;4.82;0.50;;;;;;;9.52;100.00;97855.28;5011378;28;20516;-94
2023/12/30 08:17:30;;;;;;;8.35;0.93;;;;;;;9.54;100.00;97858.50;4997391;28;20180;-93
2023/12/30 08:19:56;;;;;;;1.90;0.60;;;;;;;9.51;100.00;97843.91;4978624;28;20471;-94
2023/12/30 08:22:23;;;;;;;3.40;0.52;;;;;;;9.54;100.00;97845.31;4994208;28;20073;-91
2023/12/30 08:24:53;;;;;;;6.40;0.73;;;;;;;9.54;100.00;97840.84;5008673;28;20030;-93
2023/12/30 08:27:19;;;;;;;4.85;0.88;;;;;;;9.53;100.00;97833.16;5014398;28;20034;-94
2023/12/30 08:29:44;;;;;;;3.78;0.60;;;;;;;9.53;100.00;97819.97;5027431;28;20590;-94
2023/12/30 08:32:10;;;;;;;6.13;0.85;;;;;;;9.55;100.00;97810.03;5011653;28;20469;-93
2023/12/30 08:34:36;;;;;;;8.55;1.23;;;;;;;9.54;100.00;97813.66;5014442;28;20029;-92
2023/12/30 08:37:08;;;;;;;6.25;0.65;;;;;;;9.55;100.00;97810.03;4998888;28;20061;-93
2023/12/30 08:39:37;;;;;;;4.93;0.70;;;;;;;9.52;100.00;97821.78;5004751;28;20113;-93
2023/12/30 08:42:05;;;;;;;2.55;0.68;;;;;;;9.51;100.00;97798.25;4983599;28;20482;-93
2023/12/30 08:44:31;;;;;;;8.30;1.13;;;;;;;9.50;100.00;97831.75;4993247;28;20053;-94
2023/12/30 08:46:57;;;;;;;6.20;1.25;;;;;;;9.54;100.00;97845.31;4989060;28;20056;-92
2023/12/30 08:49:23;;;;;;;7.03;0.80;;;;;;;9.57;100.00;97857.31;5024320;28;20039;-93
2023/12/30 08:51:49;;;;;;;6.25;0.75;;;;;;;9.58;100.00;97857.09;5013487;28;20026;-93
2023/12/30 08:54:14;;;;;;;9.25;1.10;;;;;;;9.55;100.00;97868.03;5013938;28;20029;-93
2023/12/30 08:56:40;;;;;;;9.43;1.25;;;;;;;9.57;100.00;97859.94;5011723;28;20029;-92
2023/12/30 08:59:06;;;;;;;8.70;1.13;;;;;;;9.54;100.00;97853.22;4998312;28;20032;-92
2023/12/30 09:01:32;;;;;;;5.60;0.90;;;;;;;9.52;100.00;97863.97;4996336;28;20038;-92
2023/12/30 09:03:59;;;;;;;8.27;1.00;;;;;;;9.53;100.00;97864.78;4990536;28;20032;-93
2023/12/30 09:06:25;;;;;;;5.18;0.93;;;;;;;9.51;100.00;97872.91;4993587;28;20089;-92
2023/12/30 09:08:51;;;;;;;6.63;1.13;;;;;;;9.54;100.00;97890.13;4994889;28;20027;-95
2023/12/30 09:11:21;;;;;;;2.28;0.45;;;;;;;9.51;100.00;97916.91;5012186;28;20068;-93
2023/12/30 09:13:48;;;;;;;2.22;0.35;;;;;;;9.07;100.00;97914.56;5042540;28;20022;-94
2023/12/30 09:16:14;;;;;;;2.03;0.40;;;;;;;8.79;100.00;97932.09;4995004;28;20482;-95
2023/12/30 09:18:40;;;;;;;4.57;0.55;;;;;;;8.56;100.00;97914.75;5007132;28;20095;-92
2023/12/30 09:21:06;;;;;;;3.22;0.55;;;;;;;8.38;100.00;97924.94;4987154;28;20040;-91
2023/12/30 09:23:32;;;;;;;3.47;0.60;;;;;;;8.24;100.00;97922.22;4991040;28;20049;-93
2023/12/30 09:25:58;;;;;;;2.88;0.50;;;;;;;8.12;100.00;97932.44;4990447;28;20030;-94
2023/12/30 09:28:23;;;;;;;1.92;0.30;;;;;;;8.06;100.00;97941.09;5006568;28;20030;-94
2023/12/30 09:30:50;;;;;;;2.92;0.52;;;;;;;7.99;100.00;97930.53;4995243;28;20641;-94
2023/12/30 09:33:16;;;;;;;4.88;0.47;;;;;;;7.92;100.00;97940.19;5002570;28;20042;-93
2023/12/30 09:35:42;;;;;;;6.40;0.75;;;;;;;7.89;100.00;97924.78;5009133;28;20041;-93
2023/12/30 09:38:07;;;;;;;5.85;0.65;;;;;;;7.89;100.00;97899.28;4995275;28;20053;-93
2023/12/30 09:40:33;;;;;;;5.22;0.50;;;;;;;7.90;100.00;97902.75;4992055;28;20055;-93
2023/12/30 09:43:04;;;;;;;5.15;0.80;;;;;;;7.93;100.00;97915.53;4996841;28;20101;-93
2023/12/30 09:45:34;;;;;;;5.65;0.52;;;;;;;7.92;100.00;97943.63;5001991;28;20033;-93
2023/12/30 09:48:02;;;;;;;4.18;0.50;;;;;;;7.92;100.00;97953.31;5011186;28;20120;-93
2023/12/30 09:50:29;;;;;;;3.95;0.50;;;;;;;7.85;100.00;97971.66;4992974;28;20040;-93
2023/12/30 09:52:55;;;;;;;8.05;1.10;;;;;;;7.81;100.00;97973.88;4994092;28;20442;-92
2023/12/30 09:55:20;;;;;;;7.70;0.75;;;;;;;7.78;100.00;97965.53;5006261;28;20064;-91
2023/12/30 09:57:46;;;;;;;3.90;0.75;;;;;;;7.76;100.00;97959.66;4997916;28;20038;-92
2023/12/30 10:00:16;;;;;;;3.20;0.55;;;;;;;7.80;100.00;97955.66;4996485;28;20038;-92
2023/12/30 10:02:43;;;;;;;7.50;0.65;;;;;;;7.80;100.00;97966.19;4992882;28;20077;-93
2023/12/30 10:05:09;;;;;;;3.83;0.65;;;;;;;7.75;100.00;97958.84;5004063;28;20033;-92
2023/12/30 10:07:35;;;;;;;8.25;1.25;;;;;;;7.74;100.00;97930.91;4995321;28;20033;-93
2023/12/30 10:10:01;;;;;;;10.65;1.08;;;;;;;7.71;100.00;97933.91;4992231;28;20041;-92
2023/12/30 10:12:27;;;;;;;5.68;0.70;;;;;;;7.68;100.00;97932.50;5003203;28;20034;-92
2023/12/30 10:14:53;;;;;;;8.07;0.70;;;;;;;7.68;100.00;97936.94;5020276;28;20441;-91
2023/12/30 10:17:18;;;;;;;8.00;1.20;;;;;;;7.65;100.00;97940.75;5007532;28;20037;-93
2023/12/30 10:19:45;;;;;;;10.23;0.77;;;;;;;7.64;100.00;97926.00;4995277;28;20042;-91
2023/12/30 10:22:11;;;;;;;4.70;0.52;;;;;;;7.59;100.00;97928.38;5010870;28;20121;-92
2023/12/30 10:24:37;;;;;;;4.90;0.80;;;;;;;7.59;100.00;97935.44;4971369;28;20505;-90
2023/12/30 10:27:04;;;;;;;8.00;1.10;;;;;;;7.57;100.00;97936.44;4995466;28;20080;-91
2023/12/30 10:29:31;;;;;;;8.48;0.80;;;;;;;7.54;100.00;97955.22;4997409;28;20510;-92
2023/12/30 10:32:03;;;;;;;7.68;0.80;;;;;;;7.56;100.00;97955.81;4981930;28;20034;-92
2023/12/30 10:34:31;;;;;;;6.47;1.25;;;;;;;7.51;100.00;97958.22;5010272;28;20429;-92
2023/12/30 10:36:57;;;;;;;8.52;0.90;;;;;;;7.51;100.00;97963.47;4992081;28;20100;-92
2023/12/30 10:39:25;;;;;;;16.55;1.85;;;;;;;7.50;100.00;97953.94;5011108;28;20025;-92
2023/12/30 10:41:50;;;;;;;8.25;1.08;;;;;;;7.41;100.00;97949.81;5011104;28;20056;-93
2023/12/30 10:44:17;;;;;;;6.95;1.00;;;;;;;7.39;100.00;97950.00;5009519;28;20754;-91
2023/12/30 10:46:48;;;;;;;9.38;1.27;;;;;;;7.40;100.00;97942.94;5015827;28;20103;-92
2023/12/30 10:49:17;;;;;;;9.32;0.88;;;;;;;7.37;100.00;97943.28;4995150;28;20100;-92
2023/12/30 10:51:43;;;;;;;9.23;1.27;;;;;;;7.37;100.00;97936.25;5015189;28;20097;-92
2023/12/30 10:54:14;;;;;;;8.65;1.27;;;;;;;7.35;100.00;97935.59;4982908;28;20046;-93
2023/12/30 10:57:09;;;;;;;8.43;1.23;;;;;;;7.36;100.00;97939.06;5012650;28;20451;-92
2023/12/30 10:59:37;;;;;;;7.70;1.10;;;;;;;7.33;100.00;97942.84;4979337;28;20085;-92
2023/12/30 11:02:03;;;;;;;8.63;1.55;;;;;;;7.26;100.00;97920.94;4996291;28;20124;-91
2023/12/30 11:04:29;;;;;;;9.02;1.15;;;;;;;7.24;100.00;97913.25;4981941;28;20073;-92
2023/12/30 11:06:56;;;;;;;11.85;1.73;;;;;;;7.27;100.00;97907.63;5011571;28;20495;-91
2023/12/30 11:09:29;;;;;;;11.65;1.17;;;;;;;7.28;100.00;97921.56;5013554;28;20108;-79
2023/12/30 11:12:00;;;;;;;13.20;2.40;;;;;;;7.26;100.00;97919.13;5010390;28;20034;-80
2023/12/30 11:14:26;;;;;;;8.98;1.25;;;;;;;7.28;100.00;97909.25;4995140;28;20030;-91
2023/12/30 11:16:52;;;;;;;11.50;1.90;;;;;;;7.31;100.00;97915.97;5013119;28;20054;-89
2023/12/30 11:19:28;;;;;;;14.73;1.63;;;;;;;7.38;100.00;97910.75;5020417;28;20038;-91
2023/12/30 11:21:55;;;;;;;23.33;2.28;;;;;;;7.39;100.00;97883.50;5018474;28;20029;-92
2023/12/30 11:24:22;;;;;;;16.73;2.08;;;;;;;7.41;100.00;97870.97;5004936;28;20380;-91
2023/12/30 11:26:51;;;;;;;10.77;1.77;;;;;;;7.48;100.00;97850.81;5008996;28;20026;-91
2023/12/30 11:29:25;;;;;;;16.95;2.05;;;;;;;7.55;100.00;97850.84;5014640;28;20046;-81
2023/12/30 11:31:52;;;;;;;22.15;2.55;;;;;;;7.57;100.00;97835.72;4996933;28;20037;-84
2023/12/30 11:34:19;;;;;;;14.68;1.80;;;;;;;7.57;100.00;97820.78;4995733;28;20490;-92
2023/12/30 11:36:52;;;;;;;25.73;2.78;;;;;;;7.60;100.00;97831.91;5031844;28;20528;-91
2023/12/30 11:39:24;;;;;;;20.92;2.72;;;;;;;7.58;100.00;97824.19;4999488;28;20092;-92